Fall River Mills, CA (96028)

9:14 PM PST on November 23, 2014 (GMT -0800)
Glenburn | Change Station
CLOSE
Current Station
Personal Weather Station
Location: Fall River Mills, CA
Elevation: 3347 ft
Nearby Weather Stations

Elev 3347 ft 41.08 °N, 121.54 °W | Updated 9 seconds ago

Clear
Clear
28.8 °F
Feels Like 29 °F
N
2.3
Wind Variable Wind from NW
Gusts 2.3 mph

Today
High -- | Low -- °F
--% Chance of Precip.
Yesterday
High -- | Low -- °F
Precip. -- in
7:03 AM 4:41 PM
Waxing Crescent, 4% visible
Pressure 30.49 in
Visibility 5.0 miles
Clouds Clear
Windchill 29 °F
Dew Point 26 °F
Humidity 88%
Rainfall 0.00 in
Snow Depth Not available.
UV 0 out of 12
Pollen 2.60 out of 12
Air Quality Not available.
Flu Activity Not available.
METAR KMHS 240456Z AUTO 00000KT 5SM BR CLR M02/M04 A3036 RMK AO2 SLP323 T10171039

More Conditions Fewer Conditions

Pressure 30.49 in
Visibility 5.0 miles
Clouds Clear
Windchill 29 °F
Dew Point 26 °F
Humidity 88%
Rainfall 0.00 in
Snow Depth Not available.
UV 0 out of 12
Pollen 2.60 out of 12
Air Quality Not available.
Flu Activity Not available.
METAR KMHS 240456Z AUTO 00000KT 5SM BR CLR M02/M04 A3036 RMK AO2 SLP323 T10171039

More Conditions Fewer Conditions

10-Day Weather Forecast

Almanac

Astronomy

Nov. 23, 2014 Rise Set
Actual Time
Civil Twilight
Nautical Twilight
Astronomical Twilight
Moon
Length of Visible Light
Length of Day
Tomorrow will be .
, % of the Moon is Illuminated

Today's Extremes

State Highs State Lows

Community

WunderPhotos

Upload Photos

1,773,269 photos uploaded!

WunderBlogs® & News

Nearby

Air Quality

  Air Quality AQ Index Pollutant
Not available.

Snow Depth

Station Depth Elevation

Earthquake Activity

City Distance Mag. Time & Date
Minimum magnitude displayed is 2.5.

Coastal Water Temperatures

Place Temperature

Nearby Weather Stations